Time;durP1;ratioP1;P1;durP2;ratioP2;P2;SDS_P1;SDS_P2;PMS_P1;PMS_P2;Temp;Humidity;BMP_temperature;BMP_pressure;BME280_temperature;BME280_humidity;BME280_pressure;Samples;Min_cycle;Max_cycle;Signal;HPM_P1;HPM_P2
2021/12/04 00:01:54;;;;;;;38.03;17.85;;;;;;;3.49;100.00;99918.13;5020506;28;20044;-72
2021/12/04 00:04:42;;;;;;;35.13;15.77;;;;;;;3.66;100.00;99922.75;5022507;28;20025;-72
2021/12/04 00:07:10;;;;;;;37.53;19.33;;;;;;;3.62;100.00;99928.38;5018121;28;20057;-72
2021/12/04 00:09:36;;;;;;;33.90;16.10;;;;;;;3.65;100.00;99926.31;5023440;28;20655;-73
2021/12/04 00:12:03;;;;;;;36.13;17.20;;;;;;;3.44;100.00;99895.03;5024067;28;20038;-73
2021/12/04 00:14:34;;;;;;;33.38;15.95;;;;;;;3.67;100.00;99924.41;5030191;28;20033;-73
2021/12/04 00:17:01;;;;;;;28.55;14.90;;;;;;;3.45;100.00;99891.44;5021410;28;20045;-73
2021/12/04 00:19:27;;;;;;;41.75;19.50;;;;;;;3.61;100.00;99922.28;5026876;28;20029;-73
2021/12/04 00:21:54;;;;;;;30.92;15.10;;;;;;;3.56;100.00;99923.66;5018870;28;20054;-72
2021/12/04 00:24:20;;;;;;;30.55;15.55;;;;;;;3.40;100.00;99895.41;5027217;28;20045;-72
2021/12/04 00:26:47;;;;;;;27.33;14.00;;;;;;;3.58;100.00;99911.31;5009841;28;20037;-72
2021/12/04 00:29:12;;;;;;;39.17;16.70;;;;;;;3.58;100.00;99914.75;5033487;28;20397;-72
2021/12/04 00:31:46;;;;;;;34.28;17.25;;;;;;;3.45;100.00;99906.28;5021640;28;20029;-72
2021/12/04 00:34:11;;;;;;;40.97;18.75;;;;;;;3.49;100.00;99910.28;5016666;28;20040;-72
2021/12/04 00:49:59;;;;;;;34.00;15.52;;;;;;;3.52;100.00;99902.19;5020975;28;20041;-73
2021/12/04 00:52:25;;;;;;;32.05;15.63;;;;;;;3.57;100.00;99909.63;5024657;28;20034;-73
2021/12/04 00:54:50;;;;;;;37.85;15.50;;;;;;;3.45;100.00;99882.81;5024400;28;20037;-72
2021/12/04 00:57:16;;;;;;;41.10;19.92;;;;;;;3.55;100.00;99907.19;5023097;28;20068;-73
2021/12/04 00:59:42;;;;;;;30.95;16.63;;;;;;;3.53;100.00;99903.88;5029191;28;20112;-72
2021/12/04 01:02:07;;;;;;;41.10;17.08;;;;;;;3.55;100.00;99907.19;5025054;28;20112;-72
2021/12/04 01:04:33;;;;;;;36.97;16.83;;;;;;;3.50;100.00;99898.88;5025802;28;20060;-72
2021/12/04 01:06:59;;;;;;;27.92;13.60;;;;;;;3.60;100.00;99920.66;5027590;28;20051;-73
2021/12/04 01:09:26;;;;;;;42.70;17.08;;;;;;;3.46;100.00;99893.13;5022068;28;20077;-72
2021/12/04 01:11:53;;;;;;;39.20;16.40;;;;;;;3.56;100.00;99905.38;5020182;28;20033;-72
2021/12/04 01:14:22;;;;;;;35.58;15.02;;;;;;;3.57;100.00;99900.06;5020848;28;20030;-72
2021/12/04 01:16:49;;;;;;;38.47;15.63;;;;;;;3.55;100.00;99904.56;5022527;28;20025;-73
2021/12/04 01:19:14;;;;;;;44.33;17.88;;;;;;;3.43;100.00;99874.28;5021291;28;20470;-72
2021/12/04 01:21:41;;;;;;;34.85;15.15;;;;;;;3.55;100.00;99891.53;5028054;28;20084;-73
2021/12/04 01:24:07;;;;;;;44.97;18.80;;;;;;;3.46;100.00;99876.63;5022003;28;20029;-72
2021/12/04 01:26:33;;;;;;;46.83;19.63;;;;;;;3.37;100.00;99877.38;5018789;28;20040;-72
2021/12/04 01:28:59;;;;;;;40.83;15.43;;;;;;;3.48;100.00;99885.16;5014575;28;20125;-72
2021/12/04 01:31:24;;;;;;;42.72;17.95;;;;;;;3.35;100.00;99864.47;5022557;28;20474;-72
2021/12/04 01:33:50;;;;;;;47.78;18.25;;;;;;;3.50;100.00;99896.28;5019576;28;20025;-72
2021/12/04 01:36:16;;;;;;;39.38;17.00;;;;;;;3.50;100.00;99888.44;5021085;28;20041;-72
2021/12/04 01:38:41;;;;;;;39.85;16.88;;;;;;;3.42;100.00;99885.66;5024770;28;20033;-72
2021/12/04 01:41:07;;;;;;;43.53;18.85;;;;;;;3.53;100.00;99903.00;5006026;28;20044;-73
2021/12/04 01:43:32;;;;;;;36.05;16.00;;;;;;;3.42;100.00;99890.88;5022341;28;20036;-73
2021/12/04 01:45:59;;;;;;;36.20;14.35;;;;;;;3.43;100.00;99890.75;5022458;28;20167;-73
2021/12/04 01:48:25;;;;;;;40.55;15.77;;;;;;;3.51;100.00;99903.16;5021599;28;20507;-72
2021/12/04 01:50:52;;;;;;;47.38;16.13;;;;;;;3.56;100.00;99897.56;5020981;28;20042;-72
2021/12/04 01:53:18;;;;;;;40.35;16.77;;;;;;;3.49;100.00;99894.63;5032101;28;20053;-73
2021/12/04 01:55:44;;;;;;;41.95;16.70;;;;;;;3.40;100.00;99882.38;5013947;28;20060;-72
2021/12/04 01:58:09;;;;;;;44.53;15.88;;;;;;;3.40;100.00;99861.50;5026423;28;20498;-72
2021/12/04 02:00:40;;;;;;;49.55;17.58;;;;;;;3.30;100.00;99862.25;5021361;28;20025;-74
2021/12/04 02:03:08;;;;;;;56.05;19.15;;;;;;;3.37;100.00;99882.59;5023086;28;20025;-73
2021/12/04 02:05:38;;;;;;;45.35;18.20;;;;;;;3.40;100.00;99880.59;5018660;28;20040;-73
2021/12/04 02:08:05;;;;;;;44.17;16.77;;;;;;;3.37;100.00;99882.59;5020037;28;20052;-73
2021/12/04 02:10:30;;;;;;;42.00;16.65;;;;;;;3.26;100.00;99875.66;5016094;28;20048;-73
2021/12/04 02:12:56;;;;;;;45.05;17.60;;;;;;;3.25;100.00;99869.63;5025591;28;20034;-73
2021/12/04 02:15:21;;;;;;;51.15;19.80;;;;;;;3.43;100.00;99893.34;5019839;28;20045;-73
2021/12/04 02:17:48;;;;;;;46.72;17.15;;;;;;;3.36;100.00;99875.75;5023844;28;20034;-73
2021/12/04 02:20:20;;;;;;;56.83;21.02;;;;;;;3.39;100.00;99884.13;5024258;28;20040;-73
2021/12/04 02:22:47;;;;;;;45.83;17.67;;;;;;;3.44;100.00;99888.97;5021803;28;20091;-73
2021/12/04 02:25:13;;;;;;;52.53;18.23;;;;;;;3.42;100.00;99885.66;5025749;28;20061;-73
2021/12/04 02:27:39;;;;;;;41.13;17.63;;;;;;;3.39;100.00;99865.88;5021054;28;20044;-72
2021/12/04 02:30:09;;;;;;;45.53;17.60;;;;;;;3.42;100.00;99870.00;5017612;28;20026;-72
2021/12/04 02:32:35;;;;;;;69.60;21.87;;;;;;;3.18;100.00;99841.56;5033998;28;20426;-72
2021/12/04 02:35:01;;;;;;;41.45;16.00;;;;;;;3.37;100.00;99861.75;5016188;28;20288;-72
2021/12/04 02:37:26;;;;;;;46.58;18.27;;;;;;;3.36;100.00;99860.09;5018742;28;20037;-73
2021/12/04 02:39:59;;;;;;;47.22;15.98;;;;;;;3.37;100.00;99859.13;5028174;28;20103;-72
2021/12/04 02:42:28;;;;;;;49.00;17.02;;;;;;;3.40;100.00;99851.06;5025237;28;20381;-72
2021/12/04 02:44:54;;;;;;;51.47;17.95;;;;;;;3.39;100.00;99859.84;5026996;28;20033;-72
2021/12/04 02:47:20;;;;;;;57.10;17.63;;;;;;;3.44;100.00;99850.69;5024274;28;20040;-72
2021/12/04 02:49:45;;;;;;;60.25;17.88;;;;;;;3.36;100.00;99849.66;5020089;28;20038;-72
2021/12/04 02:52:13;;;;;;;65.78;19.40;;;;;;;3.33;100.00;99834.25;5025756;28;20146;-72
2021/12/04 02:54:39;;;;;;;59.15;20.40;;;;;;;3.26;100.00;99837.38;5028721;28;20172;-72
2021/12/04 02:57:07;;;;;;;46.75;17.13;;;;;;;3.30;100.00;99833.56;5024981;28;20160;-72
2021/12/04 02:59:34;;;;;;;57.60;18.45;;;;;;;3.30;100.00;99830.94;5021645;28;20046;-72
2021/12/04 03:02:00;;;;;;;49.50;18.80;;;;;;;3.29;100.00;99825.88;5007603;28;20402;-73
2021/12/04 03:04:27;;;;;;;47.97;17.20;;;;;;;3.29;100.00;99824.09;5020274;28;20408;-73
2021/12/04 03:06:53;;;;;;;50.78;16.30;;;;;;;3.24;100.00;99823.63;5025312;28;20111;-73
2021/12/04 03:09:19;;;;;;;51.22;18.05;;;;;;;3.23;100.00;99819.38;5007106;28;20517;-73
2021/12/04 03:11:45;;;;;;;69.93;18.10;;;;;;;3.29;100.00;99818.88;5013098;28;20108;-73
2021/12/04 03:14:11;;;;;;;57.90;17.10;;;;;;;3.28;100.00;99827.63;5023850;28;20061;-73
2021/12/04 03:16:38;;;;;;;50.75;16.48;;;;;;;3.29;100.00;99820.66;5026443;28;20065;-73
2021/12/04 03:19:06;;;;;;;58.78;16.98;;;;;;;3.28;100.00;99822.44;5027641;28;20029;-73
2021/12/04 03:21:33;;;;;;;60.63;17.85;;;;;;;3.29;100.00;99811.06;5023350;28;20045;-73
2021/12/04 03:24:12;;;;;;;72.50;19.13;;;;;;;3.28;100.00;99811.19;5025362;28;20428;-73
2021/12/04 03:26:38;;;;;;;94.68;22.48;;;;;;;3.19;100.00;99802.34;5025845;28;20033;-73
2021/12/04 03:29:08;;;;;;;77.05;20.35;;;;;;;3.24;100.00;99805.38;5022358;28;20034;-73
2021/12/04 03:42:15;;;;;;;67.90;19.17;;;;;;;3.15;100.00;99780.09;5025440;28;20393;-73
2021/12/04 03:44:41;;;;;;;52.75;16.48;;;;;;;3.27;100.00;99792.09;5029053;28;20063;-73
2021/12/04 03:47:08;;;;;;;57.75;18.17;;;;;;;3.18;100.00;99790.28;5005120;28;20060;-73
2021/12/04 03:49:33;;;;;;;50.28;15.82;;;;;;;3.21;100.00;99802.22;5015411;28;20033;-73
2021/12/04 03:51:59;;;;;;;47.45;15.82;;;;;;;3.16;100.00;99786.97;5019556;28;20030;-73
2021/12/04 03:54:24;;;;;;;44.28;13.68;;;;;;;3.25;100.00;99798.41;4995122;28;20053;-73
2021/12/04 03:57:00;;;;;;;44.47;16.20;;;;;;;3.14;100.00;99786.25;5029717;28;20041;-73
2021/12/04 03:59:25;;;;;;;40.45;15.38;;;;;;;3.12;100.00;99777.75;5026841;28;20034;-73
2021/12/04 04:01:51;;;;;;;42.80;14.73;;;;;;;3.18;100.00;99792.88;5026293;28;20044;-73
2021/12/04 04:04:16;;;;;;;55.20;16.35;;;;;;;3.18;100.00;99794.63;5024965;28;20064;-73
2021/12/04 04:06:42;;;;;;;40.15;15.10;;;;;;;3.10;100.00;99782.25;5027801;28;20037;-73
2021/12/04 04:09:07;;;;;;;46.15;15.95;;;;;;;3.19;100.00;99789.31;5021399;28;20061;-73
2021/12/04 04:11:36;;;;;;;46.50;14.82;;;;;;;3.06;100.00;99770.44;5022484;28;20026;-73
2021/12/04 04:14:01;;;;;;;53.63;16.42;;;;;;;3.16;100.00;99775.69;5032120;28;20033;-73
2021/12/04 04:16:26;;;;;;;45.17;15.95;;;;;;;3.18;100.00;99779.84;5023468;28;20033;-73
2021/12/04 04:18:52;;;;;;;59.90;17.55;;;;;;;3.16;100.00;99780.91;5026253;28;20033;-73
2021/12/04 04:21:17;;;;;;;33.38;12.60;;;;;;;3.21;100.00;99776.97;5030136;28;20474;-73
2021/12/04 04:23:43;;;;;;;46.47;15.20;;;;;;;3.19;100.00;99776.28;5018360;28;20039;-73
2021/12/04 04:26:08;;;;;;;38.97;13.82;;;;;;;3.18;100.00;99777.22;5021123;28;20034;-73
2021/12/04 04:28:33;;;;;;;54.75;15.52;;;;;;;3.14;100.00;99783.66;5029876;28;20109;-73
2021/12/04 04:30:59;;;;;;;38.15;13.15;;;;;;;3.02;100.00;99769.03;5026138;28;20026;-73
2021/12/04 04:33:25;;;;;;;28.58;11.48;;;;;;;3.06;100.00;99770.44;5008044;28;20474;-73
2021/12/04 04:36:06;;;;;;;66.50;20.60;;;;;;;3.07;100.00;99783.34;5025357;28;20017;-73
2021/12/04 04:57:41;;;;;;;29.85;11.27;;;;;;;3.16;100.00;99781.75;5020040;28;20064;-72
2021/12/04 05:13:23;;;;;;;;;;;;;;;3.20;100.00;99767.50;5022893;28;20041;-73
2021/12/04 05:20:49;;;;;;;39.70;13.68;;;;;;;3.14;100.00;99762.81;5023258;28;20442;-73
2021/12/04 05:23:15;;;;;;;32.90;12.90;;;;;;;3.17;100.00;99751.28;5016563;28;20112;-73
2021/12/04 05:25:41;;;;;;;41.35;14.20;;;;;;;3.17;100.00;99748.69;5018528;28;20037;-73
2021/12/04 05:28:07;;;;;;;36.45;12.77;;;;;;;3.19;100.00;99744.97;5016163;28;20029;-73
2021/12/04 05:30:34;;;;;;;32.53;11.73;;;;;;;3.12;100.00;99738.63;5015200;28;20077;-73
2021/12/04 05:33:00;;;;;;;33.95;12.25;;;;;;;3.13;100.00;99753.31;5025577;28;20030;-73
2021/12/04 05:35:26;;;;;;;28.15;11.00;;;;;;;3.13;100.00;99755.91;5016491;28;20084;-73
2021/12/04 05:37:52;;;;;;;35.42;10.48;;;;;;;3.15;100.00;99751.41;5022552;28;20025;-73
2021/12/04 05:40:18;;;;;;;40.25;13.13;;;;;;;3.07;100.00;99741.63;5023616;28;20029;-73
2021/12/04 05:42:44;;;;;;;33.58;11.38;;;;;;;3.12;100.00;99753.47;4988688;28;20040;-73
2021/12/04 05:45:24;;;;;;;42.10;13.00;;;;;;;3.12;100.00;99749.06;5014609;28;20096;-73
2021/12/04 05:48:00;;;;;;;30.48;10.90;;;;;;;3.16;100.00;99745.25;5016859;28;20037;-73
2021/12/04 05:50:56;;;;;;;33.97;12.73;;;;;;;3.19;100.00;99738.94;5014720;28;20104;-73
2021/12/04 05:53:30;;;;;;;37.35;10.70;;;;;;;3.17;100.00;99733.84;5015798;28;20029;-73
2021/12/04 05:55:56;;;;;;;25.90;9.55;;;;;;;3.21;100.00;99745.69;5015244;28;20056;-73
2021/12/04 05:58:27;;;;;;;25.88;11.50;;;;;;;3.26;100.00;99743.50;5013471;28;20044;-73
2021/12/04 06:00:54;;;;;;;;;;;;;;;3.25;100.00;99743.66;5022363;28;20170;-73
2021/12/04 06:03:20;;;;;;;29.65;9.98;;;;;;;3.05;100.00;99722.69;5014040;28;19917;-73
2021/12/04 06:05:45;;;;;;;30.67;10.18;;;;;;;3.18;100.00;99751.16;5019577;28;20474;-73
2021/12/04 06:08:11;;;;;;;28.50;10.60;;;;;;;3.06;100.00;99734.75;5015971;28;20040;-73
2021/12/04 06:10:37;;;;;;;35.00;10.63;;;;;;;3.16;100.00;99745.25;5016007;28;20050;-73
2021/12/04 06:13:03;;;;;;;31.10;11.00;;;;;;;3.06;100.00;99723.50;5021553;28;20034;-73
2021/12/04 06:15:28;;;;;;;32.05;10.88;;;;;;;3.21;100.00;99748.28;5011743;28;20033;-73
2021/12/04 06:17:55;;;;;;;27.58;10.63;;;;;;;3.22;100.00;99747.34;5013369;28;20060;-72
2021/12/04 06:23:05;;;;;;;27.42;9.57;;;;;;;3.07;100.00;99722.53;5016436;28;20040;-73
2021/12/04 06:25:30;;;;;;;27.63;9.48;;;;;;;3.20;100.00;99744.03;5014290;28;20030;-73
2021/12/04 06:27:56;;;;;;;27.70;11.13;;;;;;;3.15;100.00;99743.59;5015340;28;20049;-73
2021/12/04 06:30:23;;;;;;;23.50;10.00;;;;;;;3.12;100.00;99743.84;5013480;28;20049;-73
2021/12/04 06:32:51;;;;;;;30.80;10.65;;;;;;;3.07;100.00;99751.22;5012713;28;20108;-73
2021/12/04 06:35:18;;;;;;;24.40;10.35;;;;;;;2.98;100.00;99733.75;5016307;28;20025;-73
2021/12/04 06:37:44;;;;;;;28.58;10.35;;;;;;;3.06;100.00;99746.97;5014371;28;20030;-73
2021/12/04 06:40:14;;;;;;;29.67;12.27;;;;;;;3.03;100.00;99753.28;5011952;28;20045;-74
2021/12/04 06:42:41;;;;;;;25.98;10.48;;;;;;;3.02;100.00;99749.00;5013108;28;20572;-74
2021/12/04 06:45:08;;;;;;;30.98;10.57;;;;;;;3.02;100.00;99753.38;5019558;28;20026;-73
2021/12/04 06:47:36;;;;;;;28.63;10.88;;;;;;;2.93;100.00;99738.53;5014524;28;20121;-74
2021/12/04 06:50:07;;;;;;;29.20;10.93;;;;;;;2.86;100.00;99722.56;5029443;28;20025;-74
2021/12/04 06:52:33;;;;;;;25.10;8.98;;;;;;;3.04;100.00;99744.47;5020721;28;20046;-73
2021/12/04 06:55:01;;;;;;;28.85;12.52;;;;;;;3.01;100.00;99747.34;5016270;28;20088;-73
2021/12/04 06:57:28;;;;;;;23.08;9.63;;;;;;;3.03;100.00;99744.63;5019563;28;20037;-73
2021/12/04 06:59:55;;;;;;;28.95;10.15;;;;;;;3.07;100.00;99751.22;5020667;28;20096;-73
2021/12/04 07:02:21;;;;;;;28.65;10.77;;;;;;;3.09;100.00;99749.31;5015992;28;20030;-72
2021/12/04 07:04:46;;;;;;;25.75;10.68;;;;;;;2.98;100.00;99725.94;5020719;28;20045;-72
2021/12/04 07:07:12;;;;;;;25.33;10.23;;;;;;;3.10;100.00;99748.38;5018989;28;20041;-73
2021/12/04 07:09:39;;;;;;;23.23;10.63;;;;;;;3.08;100.00;99737.25;5015839;28;20069;-73
2021/12/04 07:12:05;;;;;;;34.00;11.50;;;;;;;2.97;100.00;99721.69;5022587;28;20107;-73
2021/12/04 07:14:32;;;;;;;29.55;11.32;;;;;;;3.09;100.00;99734.50;5023798;28;20048;-73
2021/12/04 07:17:01;;;;;;;25.55;10.45;;;;;;;2.98;100.00;99715.50;5020742;28;20110;-73
2021/12/04 07:19:27;;;;;;;28.80;9.80;;;;;;;3.03;100.00;99718.56;5014739;28;20025;-73
2021/12/04 07:21:52;;;;;;;21.65;10.20;;;;;;;3.06;100.00;99718.28;5006514;28;20056;-73
2021/12/04 07:24:18;;;;;;;23.58;10.15;;;;;;;3.05;100.00;99721.88;5018950;28;20029;-73
2021/12/04 07:26:44;;;;;;;23.30;10.18;;;;;;;3.02;100.00;99716.91;5027026;28;20083;-73
2021/12/04 07:29:10;;;;;;;25.60;9.85;;;;;;;3.07;100.00;99723.38;5021524;28;20041;-73
2021/12/04 07:31:37;;;;;;;20.30;8.27;;;;;;;2.93;100.00;99697.66;5016672;28;20375;-73
2021/12/04 07:34:03;;;;;;;22.20;8.45;;;;;;;3.02;100.00;99722.94;5018036;28;20494;-73
2021/12/04 07:36:29;;;;;;;21.42;8.02;;;;;;;2.88;100.00;99681.59;5031457;28;20038;-73
2021/12/04 07:38:54;;;;;;;26.20;11.25;;;;;;;3.01;100.00;99707.44;5012810;28;20045;-73
2021/12/04 07:41:20;;;;;;;25.30;10.90;;;;;;;2.98;100.00;99700.69;5020468;28;20128;-73
2021/12/04 07:43:48;;;;;;;22.10;9.55;;;;;;;2.98;100.00;99708.50;5023337;28;20469;-73
2021/12/04 07:46:14;;;;;;;18.70;8.68;;;;;;;3.00;100.00;99704.00;5014757;28;20029;-72
2021/12/04 07:48:39;;;;;;;24.10;9.77;;;;;;;2.84;100.00;99681.00;5015578;28;20037;-72
2021/12/04 07:51:05;;;;;;;20.90;9.48;;;;;;;3.02;100.00;99706.47;5023352;28;20033;-73
2021/12/04 07:53:31;;;;;;;24.83;9.32;;;;;;;2.99;100.00;99712.78;5014774;28;20132;-73
2021/12/04 07:55:58;;;;;;;23.60;10.05;;;;;;;2.92;100.00;99685.59;5017901;28;20037;-73
2021/12/04 07:58:23;;;;;;;26.30;10.07;;;;;;;3.03;100.00;99708.13;5018049;28;20041;-73
2021/12/04 08:00:49;;;;;;;21.60;8.18;;;;;;;2.91;100.00;99689.13;5018621;28;20045;-73
2021/12/04 08:03:15;;;;;;;22.05;10.40;;;;;;;3.09;100.00;99710.19;5020753;28;20041;-72
2021/12/04 08:05:41;;;;;;;29.80;12.55;;;;;;;3.08;100.00;99701.56;5016823;28;20035;-72
2021/12/04 08:08:06;;;;;;;24.13;9.88;;;;;;;3.11;100.00;99700.47;5020242;28;20041;-72
2021/12/04 08:10:33;;;;;;;25.63;10.50;;;;;;;3.08;100.00;99706.78;5020383;28;20049;-72
2021/12/04 08:13:01;;;;;;;26.33;10.55;;;;;;;3.10;100.00;99709.25;5021244;28;20037;-73
2021/12/04 08:15:27;;;;;;;32.15;10.80;;;;;;;3.07;100.00;99704.28;5022990;28;20740;-73
2021/12/04 08:17:53;;;;;;;27.88;10.32;;;;;;;2.87;100.00;99670.34;5019848;28;20055;-73
2021/12/04 08:20:18;;;;;;;29.42;9.70;;;;;;;2.89;100.00;99676.22;5020824;28;20045;-72
2021/12/04 08:22:44;;;;;;;19.20;9.43;;;;;;;3.02;100.00;99698.66;5005337;28;20030;-73
2021/12/04 08:25:12;;;;;;;25.15;10.20;;;;;;;3.00;100.00;99701.38;5014959;28;20051;-73
2021/12/04 08:27:38;;;;;;;33.30;10.35;;;;;;;2.99;100.00;99709.34;5014361;28;20138;-73
2021/12/04 08:30:06;;;;;;;24.77;9.90;;;;;;;2.86;100.00;99676.50;5014545;28;20104;-72
2021/12/04 08:32:32;;;;;;;20.38;10.15;;;;;;;3.00;100.00;99710.97;5017467;28;20048;-72
2021/12/04 08:34:58;;;;;;;30.75;11.45;;;;;;;2.95;100.00;99694.91;5020744;28;20848;-72
2021/12/04 08:37:24;;;;;;;28.02;10.40;;;;;;;2.97;100.00;99700.81;5019775;28;20441;-73
2021/12/04 08:39:49;;;;;;;30.73;11.50;;;;;;;3.02;100.00;99704.69;5015742;28;20026;-73
2021/12/04 08:42:15;;;;;;;34.63;12.10;;;;;;;2.91;100.00;99696.13;5020045;28;20038;-72
2021/12/04 08:44:41;;;;;;;26.45;9.40;;;;;;;2.98;100.00;99699.88;5007639;28;20110;-72
2021/12/04 08:47:06;;;;;;;29.33;10.18;;;;;;;2.99;100.00;99696.31;5015185;28;20033;-73
2021/12/04 08:49:32;;;;;;;32.95;12.00;;;;;;;2.96;100.00;99696.56;5016316;28;20037;-73
2021/12/04 08:52:00;;;;;;;27.75;10.23;;;;;;;2.90;100.00;99687.50;5019293;28;20039;-73
2021/12/04 08:54:25;;;;;;;30.23;10.35;;;;;;;2.89;100.00;99684.03;5022986;28;20420;-73
2021/12/04 08:56:51;;;;;;;25.25;10.63;;;;;;;2.91;100.00;99691.72;5014605;28;20113;-73
2021/12/04 08:59:16;;;;;;;27.23;9.93;;;;;;;3.01;100.00;99717.88;5016819;28;20045;-73
2021/12/04 09:01:43;;;;;;;26.33;10.13;;;;;;;2.81;100.00;99689.09;4987668;28;20029;-73
2021/12/04 09:04:23;;;;;;;21.58;8.98;;;;;;;2.94;100.00;99709.75;5010415;28;20548;-73
2021/12/04 09:06:50;;;;;;;26.23;10.43;;;;;;;2.95;100.00;99718.38;5020948;28;20032;-72
2021/12/04 09:09:16;;;;;;;20.10;9.20;;;;;;;2.79;100.00;99698.81;5015940;28;20065;-72
2021/12/04 09:11:47;;;;;;;19.98;9.20;;;;;;;2.68;100.00;99662.41;5023802;28;20044;-72
2021/12/04 09:14:16;;;;;;;15.48;6.60;;;;;;;2.87;100.00;99705.97;5018497;28;20043;-72
2021/12/04 09:16:42;;;;;;;21.63;9.55;;;;;;;2.92;100.00;99706.44;5016479;28;20731;-73
2021/12/04 09:19:07;;;;;;;25.20;8.30;;;;;;;2.95;100.00;99689.72;5017368;28;20025;-72
2021/12/04 09:21:35;;;;;;;16.83;9.52;;;;;;;3.02;100.00;99693.44;5017153;28;20921;-72
2021/12/04 09:24:09;;;;;;;22.25;9.27;;;;;;;3.00;100.00;99703.16;5007434;28;20038;-72
2021/12/04 09:26:43;;;;;;;23.20;8.82;;;;;;;3.00;100.00;99697.94;5024501;28;20577;-73
2021/12/04 09:34:19;;;;;;;15.93;7.30;;;;;;;3.04;100.00;99688.94;5000008;28;20124;-72
2021/12/04 10:11:11;;;;;;;17.83;9.00;;;;;;;3.45;100.00;99671.53;5018980;28;20710;-72
2021/12/04 10:12:49;;;;;;;13.10;7.63;;;;;;;3.38;100.00;99652.16;5017170;28;20061;-72
2021/12/04 10:34:42;;;;;;;15.55;8.15;;;;;;;3.56;100.00;99621.84;5023337;28;20033;-73
2021/12/04 10:37:14;;;;;;;12.68;8.07;;;;;;;3.40;100.00;99590.25;5023621;28;20172;-73
2021/12/04 10:39:40;;;;;;;12.25;6.90;;;;;;;3.58;100.00;99619.91;5025136;28;20485;-73
2021/12/04 10:42:13;;;;;;;14.80;8.07;;;;;;;3.59;100.00;99618.13;5019702;28;20100;-72
2021/12/04 10:44:41;;;;;;;16.40;8.40;;;;;;;3.57;100.00;99607.84;5017970;28;20038;-72
2021/12/04 10:47:15;;;;;;;12.60;6.32;;;;;;;3.55;100.00;99606.31;5023663;28;20049;-72
2021/12/04 10:55:21;;;;;;;13.32;7.45;;;;;;;3.65;100.00;99599.31;5020239;28;20064;-73
2021/12/04 11:00:36;;;;;;;13.90;6.88;;;;;;;3.71;100.00;99599.59;5025943;28;20076;-73
2021/12/04 11:03:17;;;;;;;12.85;7.43;;;;;;;3.70;100.00;99584.06;5023202;28;20042;-73
2021/12/04 11:27:43;;;;;;;12.50;6.18;;;;;;;3.76;100.00;99549.59;5020975;28;20110;-73
2021/12/04 11:38:14;;;;;;;12.73;7.15;;;;;;;3.81;100.00;99564.84;5020115;28;20144;-73
2021/12/04 11:43:17;;;;;;;15.15;7.47;;;;;;;3.90;100.00;99566.66;5015075;28;20041;-73
2021/12/04 11:46:01;;;;;;;14.88;7.93;;;;;;;3.88;100.00;99558.13;5022061;28;20132;-73
2021/12/04 11:48:33;;;;;;;17.80;8.05;;;;;;;3.79;100.00;99538.91;5019223;28;20037;-73
2021/12/04 11:51:01;;;;;;;16.27;7.85;;;;;;;3.84;100.00;99549.75;5016025;28;20121;-73
2021/12/04 11:53:27;;;;;;;15.23;8.48;;;;;;;3.85;100.00;99547.97;5022548;28;20029;-73
2021/12/04 11:55:53;;;;;;;16.67;8.52;;;;;;;3.81;100.00;99533.53;5009933;28;20516;-73
2021/12/04 11:58:23;;;;;;;15.13;8.30;;;;;;;3.79;100.00;99538.06;5015036;28;20041;-73
2021/12/04 12:00:53;;;;;;;20.77;8.27;;;;;;;3.66;100.00;99518.31;5014433;28;20084;-73
2021/12/04 12:03:22;;;;;;;20.38;10.30;;;;;;;3.67;100.00;99529.56;5016438;28;20041;-73
2021/12/04 12:06:00;;;;;;;20.08;9.25;;;;;;;3.74;100.00;99519.41;5018427;28;20479;-73
2021/12/04 12:08:30;;;;;;;20.85;9.73;;;;;;;3.79;100.00;99522.41;5014694;28;20123;-73
2021/12/04 12:11:09;;;;;;;15.95;7.47;;;;;;;3.79;100.00;99525.88;5020085;28;20053;-72
2021/12/04 12:13:47;;;;;;;17.95;8.55;;;;;;;3.65;100.00;99526.28;5032544;28;20082;-72
2021/12/04 12:16:17;;;;;;;15.77;8.60;;;;;;;3.65;100.00;99521.06;5020345;28;20438;-72
2021/12/04 12:18:54;;;;;;;17.77;9.03;;;;;;;3.67;100.00;99519.13;5016442;28;20477;-72
2021/12/04 12:21:34;;;;;;;25.52;8.73;;;;;;;3.65;100.00;99531.50;5015646;28;20397;-72
2021/12/04 12:27:16;;;;;;;20.58;9.68;;;;;;;3.63;100.00;99508.13;5011908;28;20474;-73
2021/12/04 12:38:46;;;;;;;22.48;9.27;;;;;;;3.74;100.00;99503.75;5017747;28;20627;-73
2021/12/04 12:41:34;;;;;;;22.08;9.52;;;;;;;3.69;100.00;99491.94;5002735;28;20033;-73
2021/12/04 12:44:13;;;;;;;25.08;9.90;;;;;;;3.80;100.00;99484.94;5021954;28;20496;-73
2021/12/04 12:46:52;;;;;;;22.50;9.98;;;;;;;3.78;100.00;99486.84;5022808;28;20081;-74
2021/12/04 12:49:38;;;;;;;21.35;9.55;;;;;;;3.71;100.00;99469.13;5030514;28;20033;-74
2021/12/04 12:52:08;;;;;;;23.02;10.30;;;;;;;3.79;100.00;99472.81;5022644;28;20042;-74
2021/12/04 12:54:35;;;;;;;22.97;9.73;;;;;;;3.92;100.00;99475.97;5026978;28;20084;-73
2021/12/04 12:57:10;;;;;;;21.30;10.05;;;;;;;3.87;100.00;99478.19;5012751;28;20076;-72
2021/12/04 13:13:51;;;;;;;22.60;9.65;;;;;;;3.83;100.00;99466.38;5047372;28;20040;-74
2021/12/04 13:16:21;;;;;;;25.63;11.30;;;;;;;3.79;100.00;99460.63;5043082;28;20120;-73
2021/12/04 13:18:52;;;;;;;19.40;10.38;;;;;;;3.71;100.00;99443.03;5049223;28;20045;-73
2021/12/04 13:21:19;;;;;;;24.55;11.85;;;;;;;3.82;100.00;99462.13;5053098;28;20543;-73
2021/12/04 13:23:49;;;;;;;20.90;10.80;;;;;;;3.82;100.00;99454.28;5052392;28;20441;-74
2021/12/04 13:26:15;;;;;;;23.27;10.52;;;;;;;3.78;100.00;99452.94;5041117;28;20090;-74
2021/12/04 13:28:45;;;;;;;130.95;44.45;;;;;;;3.84;100.00;99458.41;5040979;28;20050;-74
2021/12/04 13:31:11;;;;;;;23.13;12.30;;;;;;;3.82;100.00;99460.31;5059598;28;20082;-74
2021/12/04 13:33:39;;;;;;;27.58;13.40;;;;;;;3.76;100.00;99460.06;5050419;28;20037;-74
2021/12/04 13:36:14;;;;;;;24.52;11.50;;;;;;;3.74;100.00;99441.13;5056562;28;20039;-74
2021/12/04 13:38:39;;;;;;;31.55;13.60;;;;;;;3.66;100.00;99434.81;5046402;28;20071;-73
2021/12/04 13:41:05;;;;;;;23.63;11.20;;;;;;;3.77;100.00;99441.66;5049145;28;20028;-73
2021/12/04 13:43:30;;;;;;;25.05;11.88;;;;;;;3.82;100.00;99441.25;5049207;28;20037;-74
2021/12/04 13:46:02;;;;;;;23.83;11.75;;;;;;;3.87;100.00;99439.03;5020233;28;20029;-74
2021/12/04 13:48:29;;;;;;;23.52;11.32;;;;;;;3.86;100.00;99435.59;5013221;28;20036;-74
2021/12/04 13:50:55;;;;;;;27.73;12.85;;;;;;;3.73;100.00;99408.19;5020702;28;20528;-73
2021/12/04 13:53:36;;;;;;;21.40;11.05;;;;;;;3.76;100.00;99410.50;5024055;28;20032;-73
2021/12/04 13:56:12;;;;;;;30.48;12.77;;;;;;;3.84;100.00;99437.53;5017384;28;20025;-74
2021/12/04 13:59:05;;;;;;;25.17;12.75;;;;;;;3.83;100.00;99437.66;5016358;28;20034;-74
2021/12/04 14:01:41;;;;;;;25.45;13.30;;;;;;;3.82;100.00;99433.41;5013059;28;20042;-74
2021/12/04 14:04:11;;;;;;;21.98;10.85;;;;;;;3.85;100.00;99439.16;5011067;28;20121;-73
2021/12/04 14:06:36;;;;;;;31.05;15.20;;;;;;;3.79;100.00;99436.28;5010072;28;20490;-74
2021/12/04 14:09:07;;;;;;;30.55;15.48;;;;;;;3.74;100.00;99434.09;5013668;28;20066;-74
2021/12/04 14:11:36;;;;;;;32.10;14.00;;;;;;;3.72;100.00;99438.63;5008585;28;20042;-74
2021/12/04 14:14:22;;;;;;;32.97;14.75;;;;;;;3.73;100.00;99434.25;5014044;28;20041;-73
2021/12/04 14:16:51;;;;;;;37.13;17.33;;;;;;;3.69;100.00;99431.91;5011708;28;20105;-73
2021/12/04 14:19:28;;;;;;;32.50;13.65;;;;;;;3.73;100.00;99429.03;5012728;28;20060;-73
2021/12/04 14:21:57;;;;;;;33.25;14.43;;;;;;;3.75;100.00;99429.72;5014852;28;20045;-73
2021/12/04 14:24:42;;;;;;;38.40;15.57;;;;;;;3.75;100.00;99425.31;5015661;28;20509;-73
2021/12/04 14:27:10;;;;;;;34.63;16.52;;;;;;;3.78;100.00;99426.81;5004475;28;20029;-73
2021/12/04 14:29:42;;;;;;;38.92;17.27;;;;;;;3.73;100.00;99418.59;5016301;28;20029;-73
2021/12/04 14:32:09;;;;;;;33.70;15.50;;;;;;;3.76;100.00;99416.53;5010171;28;20038;-73
2021/12/04 14:34:35;;;;;;;36.10;17.05;;;;;;;3.69;100.00;99405.81;5011963;28;20024;-73